Time;durP1;ratioP1;P1;durP2;ratioP2;P2;SDS_P1;SDS_P2;PMS_P1;PMS_P2;Temp;Humidity;BMP_temperature;BMP_pressure;BME280_temperature;BME280_humidity;BME280_pressure;Samples;Min_cycle;Max_cycle;Signal;HPM_P1;HPM_P2
2024/01/20 00:00:59;;;;;;;109.03;103.40;;;;;;;;;;5078195;28;20461;-65
2024/01/20 00:03:29;;;;;;;108.18;102.57;;;;;;;;;;5060332;28;20451;-65
2024/01/20 00:05:56;;;;;;;108.85;103.20;;;;;;;;;;5071190;28;20930;-65
2024/01/20 00:08:24;;;;;;;103.30;97.90;;;;;;;;;;5067912;28;20431;-64
2024/01/20 00:10:54;;;;;;;101.15;95.85;;;;;;;;;;5073501;28;20439;-65
2024/01/20 00:13:22;;;;;;;101.65;96.35;;;;;;;;;;5066638;28;20860;-64
2024/01/20 00:15:49;;;;;;;104.07;98.70;;;;;;;;;;5074383;28;20508;-64
2024/01/20 00:18:16;;;;;;;97.65;92.53;;;;;;;;;;5076710;28;20800;-64
2024/01/20 00:20:45;;;;;;;107.45;101.50;;;;;;;;;;5070282;28;20438;-65
2024/01/20 00:23:13;;;;;;;93.65;88.60;;;;;;;;;;5075789;28;20463;-65
2024/01/20 00:25:41;;;;;;;94.33;89.33;;;;;;;;;;5056695;28;20435;-64
2024/01/20 00:28:09;;;;;;;90.68;85.93;;;;;;;;;;5068498;28;20470;-65
2024/01/20 00:30:36;;;;;;;95.30;90.30;;;;;;;;;;5073933;28;20427;-65
2024/01/20 00:33:03;;;;;;;93.25;88.45;;;;;;;;;;5076766;28;20424;-65
2024/01/20 00:35:31;;;;;;;94.68;89.78;;;;;;;;;;5077992;28;20423;-65
2024/01/20 00:38:01;;;;;;;93.30;88.40;;;;;;;;;;5080001;28;20900;-65
2024/01/20 00:40:29;;;;;;;91.38;86.57;;;;;;;;;;5077756;28;21239;-64
2024/01/20 00:42:56;;;;;;;97.97;92.88;;;;;;;;;;5077374;28;20470;-65
2024/01/20 00:45:26;;;;;;;95.03;90.10;;;;;;;;;;5077735;28;20485;-65
2024/01/20 00:47:53;;;;;;;92.95;88.05;;;;;;;;;;5075330;28;20431;-65
2024/01/20 00:50:20;;;;;;;97.18;92.13;;;;;;;;;;5067510;28;20430;-65
2024/01/20 00:52:47;;;;;;;96.00;91.00;;;;;;;;;;5072965;28;20439;-65
2024/01/20 00:55:15;;;;;;;82.22;77.72;;;;;;;;;;5059178;28;20431;-65
2024/01/20 00:57:42;;;;;;;110.93;105.07;;;;;;;;;;5075020;28;21030;-65
2024/01/20 01:00:10;;;;;;;115.60;109.53;;;;;;;;;;5061018;28;20439;-65
2024/01/20 01:02:39;;;;;;;119.38;113.13;;;;;;;;;;5071498;28;20427;-65
2024/01/20 01:05:09;;;;;;;117.70;111.67;;;;;;;;;;5085997;28;20430;-65
2024/01/20 01:07:37;;;;;;;123.13;116.82;;;;;;;;;;5068368;28;22046;-65
2024/01/20 01:10:06;;;;;;;119.25;113.18;;;;;;;;;;5062662;28;20936;-65
2024/01/20 01:12:34;;;;;;;129.57;123.00;;;;;;;;;;5075379;28;20423;-65
2024/01/20 01:15:01;;;;;;;124.68;118.30;;;;;;;;;;5072096;28;20451;-64
2024/01/20 01:17:28;;;;;;;117.53;111.40;;;;;;;;;;5073069;28;20626;-64
2024/01/20 01:19:56;;;;;;;117.57;111.45;;;;;;;;;;5072387;28;20461;-65
2024/01/20 01:22:24;;;;;;;118.60;112.38;;;;;;;;;;5074819;28;20497;-65
2024/01/20 01:24:51;;;;;;;129.15;122.45;;;;;;;;;;5074210;28;20520;-65
2024/01/20 01:27:21;;;;;;;123.30;116.97;;;;;;;;;;5068599;28;20435;-65
2024/01/20 01:29:48;;;;;;;120.47;114.15;;;;;;;;;;5063194;28;20430;-65
2024/01/20 01:32:15;;;;;;;114.30;108.25;;;;;;;;;;5078531;28;20464;-65
2024/01/20 01:34:43;;;;;;;119.20;113.05;;;;;;;;;;5076080;28;20434;-65
2024/01/20 01:37:13;;;;;;;119.43;113.13;;;;;;;;;;5076910;28;20835;-65
2024/01/20 01:39:42;;;;;;;120.97;114.63;;;;;;;;;;5066564;28;20426;-65
2024/01/20 01:42:10;;;;;;;118.85;112.78;;;;;;;;;;5081158;28;20421;-65
2024/01/20 01:44:40;;;;;;;114.75;108.72;;;;;;;;;;5075464;28;20449;-65
2024/01/20 01:47:10;;;;;;;121.95;115.68;;;;;;;;;;5072887;28;20885;-65
2024/01/20 01:49:37;;;;;;;114.15;108.20;;;;;;;;;;5084359;28;20504;-65
2024/01/20 01:52:10;;;;;;;115.43;109.50;;;;;;;;;;5058257;28;20482;-65
2024/01/20 01:54:39;;;;;;;118.60;112.43;;;;;;;;;;5066524;28;20839;-65
2024/01/20 01:57:07;;;;;;;112.88;106.97;;;;;;;;;;5048758;28;20433;-65
2024/01/20 01:59:35;;;;;;;114.18;108.35;;;;;;;;;;5078151;28;20426;-65
2024/01/20 02:02:05;;;;;;;112.10;106.30;;;;;;;;;;5078297;28;20459;-65
2024/01/20 02:04:32;;;;;;;102.75;97.35;;;;;;;;;;5075972;28;20430;-64
2024/01/20 02:06:59;;;;;;;98.53;93.35;;;;;;;;;;5068641;28;20436;-65
2024/01/20 02:09:29;;;;;;;93.78;88.85;;;;;;;;;;5075271;28;20457;-65
2024/01/20 02:11:56;;;;;;;79.53;75.30;;;;;;;;;;5083271;28;20422;-65
2024/01/20 02:14:24;;;;;;;92.15;87.28;;;;;;;;;;5072618;28;20423;-65
2024/01/20 02:16:51;;;;;;;91.65;86.80;;;;;;;;;;5070220;28;20415;-65
2024/01/20 02:19:18;;;;;;;86.88;82.28;;;;;;;;;;5068252;28;21015;-65
2024/01/20 02:21:46;;;;;;;89.65;85.00;;;;;;;;;;5070402;28;20435;-65
2024/01/20 02:24:13;;;;;;;82.03;77.75;;;;;;;;;;5077326;28;20463;-66
2024/01/20 02:26:40;;;;;;;78.57;74.40;;;;;;;;;;5080863;28;20426;-65
2024/01/20 02:29:07;;;;;;;93.28;88.30;;;;;;;;;;5071266;28;20918;-65
2024/01/20 02:31:38;;;;;;;101.93;96.60;;;;;;;;;;5062782;28;20445;-65
2024/01/20 02:34:05;;;;;;;95.00;90.05;;;;;;;;;;5071089;28;20459;-65
2024/01/20 02:36:33;;;;;;;54.20;51.20;;;;;;;;;;5069478;28;20440;-65
2024/01/20 02:39:00;;;;;;;76.03;71.97;;;;;;;;;;5061952;28;20461;-65
2024/01/20 02:41:27;;;;;;;74.38;70.38;;;;;;;;;;5081399;28;20429;-64
2024/01/20 02:43:54;;;;;;;83.00;78.68;;;;;;;;;;5071438;28;20523;-65
2024/01/20 02:46:21;;;;;;;78.70;74.50;;;;;;;;;;5088709;28;20524;-65
2024/01/20 02:48:48;;;;;;;87.35;82.72;;;;;;;;;;5071953;28;20427;-65
2024/01/20 02:51:16;;;;;;;86.35;81.80;;;;;;;;;;5073619;28;20790;-65
2024/01/20 02:53:43;;;;;;;88.60;84.03;;;;;;;;;;5078512;28;20846;-66
2024/01/20 02:56:10;;;;;;;87.45;82.85;;;;;;;;;;5075681;28;20487;-65
2024/01/20 02:58:37;;;;;;;82.72;78.40;;;;;;;;;;5076083;28;20509;-65
2024/01/20 03:01:06;;;;;;;75.78;71.68;;;;;;;;;;5071780;28;20501;-65
2024/01/20 03:03:33;;;;;;;78.25;74.15;;;;;;;;;;5068875;28;20959;-65
2024/01/20 03:06:00;;;;;;;74.88;70.93;;;;;;;;;;5076166;28;20808;-65
2024/01/20 03:08:34;;;;;;;77.20;73.15;;;;;;;;;;5069896;28;20463;-65
2024/01/20 03:11:01;;;;;;;74.85;70.85;;;;;;;;;;5065178;28;20541;-65
2024/01/20 03:13:30;;;;;;;73.22;69.25;;;;;;;;;;5068299;28;20984;-65
2024/01/20 03:15:58;;;;;;;72.38;68.45;;;;;;;;;;5068052;28;20429;-65
2024/01/20 03:18:25;;;;;;;95.10;90.00;;;;;;;;;;5072527;28;20947;-66
2024/01/20 03:20:52;;;;;;;120.07;112.78;;;;;;;;;;5075284;28;20434;-65
2024/01/20 03:23:19;;;;;;;112.35;106.47;;;;;;;;;;5078744;28;20426;-66
2024/01/20 03:25:50;;;;;;;116.53;110.57;;;;;;;;;;5081970;28;20876;-65
2024/01/20 03:28:17;;;;;;;116.95;110.97;;;;;;;;;;5074061;28;20963;-66
2024/01/20 03:30:44;;;;;;;117.00;111.05;;;;;;;;;;5067845;28;20442;-65
2024/01/20 03:33:12;;;;;;;115.35;109.05;;;;;;;;;;5078990;28;20435;-65
2024/01/20 03:35:39;;;;;;;117.22;111.18;;;;;;;;;;5069016;28;20443;-65
2024/01/20 03:38:06;;;;;;;110.40;104.60;;;;;;;;;;5063298;28;20898;-65
2024/01/20 03:40:33;;;;;;;113.32;107.57;;;;;;;;;;5065978;28;20475;-65
2024/01/20 03:43:01;;;;;;;115.45;109.47;;;;;;;;;;5064176;28;20431;-65
2024/01/20 03:45:30;;;;;;;112.18;106.32;;;;;;;;;;5077447;28;20430;-65
2024/01/20 03:47:58;;;;;;;116.18;109.95;;;;;;;;;;5062431;28;20910;-65
2024/01/20 03:50:25;;;;;;;110.60;104.85;;;;;;;;;;5076392;28;20438;-66
2024/01/20 03:52:52;;;;;;;115.57;109.68;;;;;;;;;;5066855;28;20786;-65
2024/01/20 03:55:22;;;;;;;114.15;108.32;;;;;;;;;;5074766;28;20434;-65
2024/01/20 03:57:50;;;;;;;115.55;109.55;;;;;;;;;;5061082;28;20427;-65
2024/01/20 04:00:17;;;;;;;119.60;113.25;;;;;;;;;;5071908;28;20421;-65
2024/01/20 04:02:44;;;;;;;116.03;109.80;;;;;;;;;;5064982;28;20435;-65
2024/01/20 04:05:11;;;;;;;115.85;109.53;;;;;;;;;;5071424;28;20426;-66
2024/01/20 04:07:42;;;;;;;115.15;109.25;;;;;;;;;;5067749;28;20461;-65
2024/01/20 04:10:09;;;;;;;115.80;109.65;;;;;;;;;;5079481;28;20453;-65
2024/01/20 04:12:39;;;;;;;119.47;112.57;;;;;;;;;;5070479;28;20427;-65
2024/01/20 04:15:06;;;;;;;114.93;109.03;;;;;;;;;;5074868;28;20523;-66
2024/01/20 04:17:34;;;;;;;113.10;107.20;;;;;;;;;;5073138;28;20434;-64
2024/01/20 04:20:01;;;;;;;108.75;102.75;;;;;;;;;;5061618;28;20497;-64
2024/01/20 04:22:28;;;;;;;112.20;106.35;;;;;;;;;;5064148;28;20451;-65
2024/01/20 04:24:55;;;;;;;104.55;99.13;;;;;;;;;;5067509;28;20511;-65
2024/01/20 04:27:23;;;;;;;77.22;73.05;;;;;;;;;;5067192;28;20427;-65
2024/01/20 04:29:50;;;;;;;102.07;96.72;;;;;;;;;;5061513;28;20932;-65
2024/01/20 04:32:17;;;;;;;75.35;71.15;;;;;;;;;;5063410;28;20779;-65
2024/01/20 04:34:44;;;;;;;80.70;76.30;;;;;;;;;;5067446;28;20506;-65
2024/01/20 04:37:11;;;;;;;100.35;95.13;;;;;;;;;;5070957;28;20527;-65
2024/01/20 04:39:40;;;;;;;103.88;98.50;;;;;;;;;;5070736;28;20985;-65
2024/01/20 04:42:09;;;;;;;105.35;99.90;;;;;;;;;;5071188;28;20433;-65
2024/01/20 04:44:36;;;;;;;112.22;106.30;;;;;;;;;;5077474;28;20912;-65
2024/01/20 04:47:03;;;;;;;105.55;99.85;;;;;;;;;;5059725;28;20497;-65
2024/01/20 04:49:30;;;;;;;108.50;102.88;;;;;;;;;;5064803;28;20431;-65
2024/01/20 04:52:01;;;;;;;110.00;104.22;;;;;;;;;;5067141;28;20459;-65
2024/01/20 04:54:29;;;;;;;111.18;105.13;;;;;;;;;;5062483;28;20427;-65
2024/01/20 04:56:59;;;;;;;115.13;109.17;;;;;;;;;;5058081;28;20449;-65
2024/01/20 04:59:26;;;;;;;108.45;102.65;;;;;;;;;;5064227;28;20431;-65
2024/01/20 05:01:54;;;;;;;111.10;105.32;;;;;;;;;;5070679;28;20435;-71
2024/01/20 05:04:21;;;;;;;104.78;99.25;;;;;;;;;;5070546;28;20520;-72
2024/01/20 05:06:54;;;;;;;103.80;98.32;;;;;;;;;;5068154;28;20434;-71
2024/01/20 05:09:22;;;;;;;101.55;95.82;;;;;;;;;;5072337;28;20442;-72
2024/01/20 05:11:49;;;;;;;97.57;92.28;;;;;;;;;;5075278;28;20493;-71
2024/01/20 05:14:16;;;;;;;79.22;74.88;;;;;;;;;;5067491;28;20424;-71
2024/01/20 05:16:46;;;;;;;106.63;101.00;;;;;;;;;;5064430;28;20429;-71
2024/01/20 05:19:13;;;;;;;114.50;108.60;;;;;;;;;;5064820;28;21459;-71
2024/01/20 05:21:41;;;;;;;116.43;110.43;;;;;;;;;;5079184;28;20533;-71
2024/01/20 05:24:12;;;;;;;117.70;111.65;;;;;;;;;;5067872;28;20432;-71
2024/01/20 05:26:40;;;;;;;115.10;109.13;;;;;;;;;;5066165;28;20928;-71
2024/01/20 05:29:07;;;;;;;116.90;110.50;;;;;;;;;;5070545;28;20436;-71
2024/01/20 05:31:34;;;;;;;117.88;111.72;;;;;;;;;;5062511;28;20509;-70
2024/01/20 05:34:01;;;;;;;111.82;106.05;;;;;;;;;;5070251;28;20524;-71
2024/01/20 05:36:29;;;;;;;115.78;109.78;;;;;;;;;;5067538;28;20488;-72
2024/01/20 05:38:56;;;;;;;122.50;116.15;;;;;;;;;;5064281;28;20433;-72
2024/01/20 05:41:26;;;;;;;119.68;113.40;;;;;;;;;;5072955;28;20435;-71
2024/01/20 05:43:54;;;;;;;114.30;108.28;;;;;;;;;;5060969;28;20429;-71
2024/01/20 05:46:21;;;;;;;119.30;113.18;;;;;;;;;;5064180;28;20438;-71
2024/01/20 05:48:49;;;;;;;121.45;115.00;;;;;;;;;;5077067;28;20461;-71
2024/01/20 05:51:16;;;;;;;121.82;115.45;;;;;;;;;;5067489;28;20427;-71
2024/01/20 05:53:43;;;;;;;118.18;111.95;;;;;;;;;;5074713;28;20508;-71
2024/01/20 05:56:10;;;;;;;94.68;89.72;;;;;;;;;;5068706;28;20434;-71
2024/01/20 05:58:38;;;;;;;85.75;81.18;;;;;;;;;;5068812;28;20500;-71
2024/01/20 06:01:05;;;;;;;91.38;86.57;;;;;;;;;;5068371;28;20427;-71
2024/01/20 06:03:32;;;;;;;94.05;89.10;;;;;;;;;;5065322;28;20436;-71
2024/01/20 06:05:59;;;;;;;94.32;89.38;;;;;;;;;;5071654;28;20431;-71
2024/01/20 06:08:29;;;;;;;73.85;69.88;;;;;;;;;;5069134;28;20423;-71
2024/01/20 06:10:56;;;;;;;79.28;75.07;;;;;;;;;;5066576;28;20433;-71
2024/01/20 06:13:23;;;;;;;80.80;76.47;;;;;;;;;;5070198;28;20893;-73
2024/01/20 06:15:54;;;;;;;82.38;78.00;;;;;;;;;;5067673;28;20455;-71
2024/01/20 06:18:21;;;;;;;94.53;89.57;;;;;;;;;;5072936;28;20427;-70
2024/01/20 06:20:48;;;;;;;100.63;95.32;;;;;;;;;;5071144;28;20427;-70
2024/01/20 06:23:15;;;;;;;90.20;85.50;;;;;;;;;;5068050;28;20433;-71
2024/01/20 06:25:43;;;;;;;95.53;90.40;;;;;;;;;;5068189;28;20510;-71
2024/01/20 06:28:12;;;;;;;98.13;92.95;;;;;;;;;;5072559;28;20494;-70
2024/01/20 06:30:42;;;;;;;83.50;78.95;;;;;;;;;;5082924;28;20506;-71
2024/01/20 06:33:09;;;;;;;105.68;100.13;;;;;;;;;;5065443;28;20435;-70
2024/01/20 06:35:38;;;;;;;76.60;72.47;;;;;;;;;;5069227;28;20525;-71
2024/01/20 06:38:05;;;;;;;89.28;84.50;;;;;;;;;;5075901;28;20497;-71
2024/01/20 06:40:32;;;;;;;73.18;69.25;;;;;;;;;;5072829;28;20431;-70
2024/01/20 06:42:59;;;;;;;84.97;80.47;;;;;;;;;;5089342;28;20425;-71
2024/01/20 06:45:30;;;;;;;77.10;73.00;;;;;;;;;;5081609;28;20479;-70
2024/01/20 06:47:57;;;;;;;78.65;74.45;;;;;;;;;;5080290;28;20923;-71
2024/01/20 06:50:25;;;;;;;86.78;81.55;;;;;;;;;;5078466;28;20427;-70
2024/01/20 06:52:52;;;;;;;103.05;97.70;;;;;;;;;;5061494;28;20434;-71
2024/01/20 06:55:20;;;;;;;94.63;89.70;;;;;;;;;;5068772;28;20431;-70
2024/01/20 06:57:47;;;;;;;90.95;86.22;;;;;;;;;;5055203;28;20431;-69
2024/01/20 07:00:14;;;;;;;88.85;84.15;;;;;;;;;;5070106;28;20488;-69
2024/01/20 07:02:43;;;;;;;92.55;87.75;;;;;;;;;;5071165;28;20506;-69
2024/01/20 07:05:12;;;;;;;85.18;80.60;;;;;;;;;;5072487;28;20435;-69
2024/01/20 07:07:39;;;;;;;97.53;92.43;;;;;;;;;;5070671;28;20535;-69
2024/01/20 07:10:08;;;;;;;91.30;86.50;;;;;;;;;;5074085;28;20440;-69
2024/01/20 07:12:36;;;;;;;87.25;82.65;;;;;;;;;;5067292;28;20440;-69
2024/01/20 07:15:05;;;;;;;86.77;82.17;;;;;;;;;;5072229;28;20439;-69
2024/01/20 07:17:35;;;;;;;90.67;85.93;;;;;;;;;;5062800;28;20479;-69
2024/01/20 07:20:05;;;;;;;95.72;90.63;;;;;;;;;;5061910;28;20459;-69
2024/01/20 07:22:35;;;;;;;89.03;84.32;;;;;;;;;;5067899;28;20445;-69
2024/01/20 07:25:03;;;;;;;83.90;79.38;;;;;;;;;;5065322;28;20467;-69
2024/01/20 07:27:30;;;;;;;107.65;101.78;;;;;;;;;;5068768;28;20431;-69
2024/01/20 07:29:58;;;;;;;97.63;92.50;;;;;;;;;;5058952;28;20431;-69
2024/01/20 07:32:26;;;;;;;106.07;100.53;;;;;;;;;;5067083;28;20435;-69
2024/01/20 07:34:56;;;;;;;118.07;111.55;;;;;;;;;;5062580;28;20423;-69
2024/01/20 07:37:23;;;;;;;106.90;101.30;;;;;;;;;;5068686;28;20423;-69
2024/01/20 07:39:50;;;;;;;104.18;98.70;;;;;;;;;;5063485;28;20453;-69
2024/01/20 07:42:18;;;;;;;115.07;108.78;;;;;;;;;;5052130;28;20439;-69
2024/01/20 07:44:45;;;;;;;101.13;95.80;;;;;;;;;;5062451;28;20455;-69
2024/01/20 07:47:14;;;;;;;94.35;89.20;;;;;;;;;;5066310;28;20455;-69
2024/01/20 07:49:41;;;;;;;103.55;97.65;;;;;;;;;;5070464;28;20439;-69
2024/01/20 07:52:08;;;;;;;110.93;105.00;;;;;;;;;;5067798;28;20439;-68
2024/01/20 07:54:35;;;;;;;102.05;96.40;;;;;;;;;;5065486;28;20483;-69
2024/01/20 07:57:03;;;;;;;103.30;97.55;;;;;;;;;;5058887;28;20429;-69
2024/01/20 07:59:32;;;;;;;104.85;98.75;;;;;;;;;;5062248;28;20482;-69
2024/01/20 08:02:01;;;;;;;110.13;104.35;;;;;;;;;;5061719;28;20427;-69
2024/01/20 08:04:28;;;;;;;104.13;98.55;;;;;;;;;;5077263;28;20431;-69
2024/01/20 08:06:55;;;;;;;92.60;87.72;;;;;;;;;;5066923;28;20518;-69
2024/01/20 08:09:22;;;;;;;99.82;94.18;;;;;;;;;;5066214;28;20511;-69
2024/01/20 08:11:52;;;;;;;90.88;85.90;;;;;;;;;;5067608;28;20431;-68
2024/01/20 08:14:22;;;;;;;77.55;73.38;;;;;;;;;;5060509;28;20511;-69
2024/01/20 08:16:50;;;;;;;67.95;64.28;;;;;;;;;;5068731;28;20459;-69
2024/01/20 08:19:17;;;;;;;76.82;72.72;;;;;;;;;;5058278;28;20936;-69
2024/01/20 08:21:44;;;;;;;83.93;79.32;;;;;;;;;;5068086;28;20442;-69
2024/01/20 08:24:11;;;;;;;87.95;83.25;;;;;;;;;;5060834;28;20507;-69
2024/01/20 08:26:38;;;;;;;91.95;87.15;;;;;;;;;;5056361;28;20519;-69
2024/01/20 08:29:05;;;;;;;86.50;81.95;;;;;;;;;;5069564;28;20848;-69
2024/01/20 08:31:33;;;;;;;69.65;65.85;;;;;;;;;;5060039;28;20431;-68
2024/01/20 08:34:02;;;;;;;87.22;82.53;;;;;;;;;;5072287;28;20423;-69
2024/01/20 08:36:30;;;;;;;96.75;91.70;;;;;;;;;;5063937;28;20619;-70
2024/01/20 08:38:57;;;;;;;103.55;98.07;;;;;;;;;;5061419;28;20430;-69
2024/01/20 08:41:25;;;;;;;101.05;95.70;;;;;;;;;;5070628;28;20904;-69
2024/01/20 08:43:55;;;;;;;104.00;98.40;;;;;;;;;;5061971;28;20548;-69
2024/01/20 08:46:22;;;;;;;97.90;92.78;;;;;;;;;;5066505;28;21003;-69
2024/01/20 08:48:49;;;;;;;93.43;88.53;;;;;;;;;;5063245;28;20427;-69
2024/01/20 08:51:16;;;;;;;98.95;93.82;;;;;;;;;;5054643;28;20441;-69
2024/01/20 08:53:50;;;;;;;99.28;94.07;;;;;;;;;;5058290;28;20872;-68
2024/01/20 08:56:17;;;;;;;79.32;75.10;;;;;;;;;;5057408;28;21355;-68
2024/01/20 08:58:44;;;;;;;74.28;70.22;;;;;;;;;;5055068;28;20558;-68
2024/01/20 09:01:11;;;;;;;75.90;71.45;;;;;;;;;;5063680;28;20436;-68
2024/01/20 09:03:38;;;;;;;88.93;84.25;;;;;;;;;;5054997;28;20430;-68
2024/01/20 09:06:05;;;;;;;93.03;88.03;;;;;;;;;;5062097;28;20525;-68
2024/01/20 09:08:33;;;;;;;96.00;90.82;;;;;;;;;;5067437;28;21216;-68
2024/01/20 09:11:00;;;;;;;104.87;99.37;;;;;;;;;;5061772;28;20443;-68
2024/01/20 09:13:27;;;;;;;104.38;98.68;;;;;;;;;;5063793;28;20515;-68
2024/01/20 09:15:54;;;;;;;105.53;99.70;;;;;;;;;;5066712;28;20435;-68
2024/01/20 09:18:22;;;;;;;102.00;96.63;;;;;;;;;;5065635;28;20431;-68
2024/01/20 09:20:51;;;;;;;105.38;99.85;;;;;;;;;;5068597;28;20536;-68
2024/01/20 09:23:18;;;;;;;100.05;94.75;;;;;;;;;;5067052;28;20465;-68
2024/01/20 09:25:45;;;;;;;107.65;102.07;;;;;;;;;;5063049;28;20419;-68
2024/01/20 09:28:12;;;;;;;92.40;87.50;;;;;;;;;;5065919;28;20783;-68
2024/01/20 09:30:39;;;;;;;97.22;90.93;;;;;;;;;;5066549;28;20427;-68
2024/01/20 09:33:07;;;;;;;98.72;93.22;;;;;;;;;;5059278;28;20494;-68
2024/01/20 09:35:34;;;;;;;94.67;89.67;;;;;;;;;;5067567;28;20423;-68
2024/01/20 09:38:03;;;;;;;113.88;108.13;;;;;;;;;;5061683;28;20520;-68
2024/01/20 09:40:32;;;;;;;90.47;85.78;;;;;;;;;;5067527;28;20423;-67
2024/01/20 09:42:59;;;;;;;93.30;88.35;;;;;;;;;;5083057;28;20457;-68
2024/01/20 09:45:26;;;;;;;97.47;92.20;;;;;;;;;;5057056;28;20506;-68
2024/01/20 09:47:54;;;;;;;101.32;96.03;;;;;;;;;;5066621;28;20423;-68
2024/01/20 09:50:22;;;;;;;66.70;63.00;;;;;;;;;;5066848;28;20434;-68
2024/01/20 09:52:59;;;;;;;110.22;104.35;;;;;;;;;;5075142;28;20450;-68
2024/01/20 09:55:27;;;;;;;105.07;99.55;;;;;;;;;;5065329;28;21171;-68
2024/01/20 09:57:55;;;;;;;90.50;85.45;;;;;;;;;;5067290;28;20423;-68
2024/01/20 10:00:23;;;;;;;76.00;71.85;;;;;;;;;;5074100;28;20879;-67
2024/01/20 10:02:51;;;;;;;97.93;92.72;;;;;;;;;;5058519;28;20433;-68
2024/01/20 10:05:23;;;;;;;110.07;104.18;;;;;;;;;;5063335;28;20518;-67
2024/01/20 10:07:51;;;;;;;107.78;102.07;;;;;;;;;;5049945;28;20505;-68
2024/01/20 10:10:22;;;;;;;108.57;102.93;;;;;;;;;;5073561;28;20435;-68
2024/01/20 10:12:50;;;;;;;106.50;100.90;;;;;;;;;;5075370;28;20885;-68
2024/01/20 10:15:25;;;;;;;107.37;101.07;;;;;;;;;;5065971;28;20435;-68
2024/01/20 10:17:59;;;;;;;110.13;104.38;;;;;;;;;;5067762;28;20431;-68
2024/01/20 10:20:31;;;;;;;113.18;107.28;;;;;;;;;;5067992;28;20436;-67
2024/01/20 10:23:00;;;;;;;116.45;110.35;;;;;;;;;;5070133;28;20867;-67
2024/01/20 10:25:28;;;;;;;112.60;106.50;;;;;;;;;;5069872;28;20428;-68
2024/01/20 10:27:55;;;;;;;110.75;104.95;;;;;;;;;;5073127;28;20461;-67
2024/01/20 10:30:24;;;;;;;122.28;115.47;;;;;;;;;;5072747;28;20434;-67
2024/01/20 10:32:53;;;;;;;123.68;117.28;;;;;;;;;;5081466;28;20510;-67
2024/01/20 10:35:35;;;;;;;112.57;106.03;;;;;;;;;;5072871;28;20759;-68
2024/01/20 10:38:07;;;;;;;116.18;109.72;;;;;;;;;;5064318;28;20481;-68
2024/01/20 10:40:36;;;;;;;122.32;115.75;;;;;;;;;;5060562;28;20501;-67
2024/01/20 10:43:12;;;;;;;113.63;107.45;;;;;;;;;;5051430;28;20864;-67
2024/01/20 10:45:46;;;;;;;114.32;108.10;;;;;;;;;;5070424;28;20431;-67
2024/01/20 10:48:21;;;;;;;118.90;112.60;;;;;;;;;;5070651;28;20493;-67
2024/01/20 10:50:53;;;;;;;130.13;123.32;;;;;;;;;;5068483;28;20481;-67
2024/01/20 10:53:20;;;;;;;122.90;116.53;;;;;;;;;;5069322;28;20510;-67
2024/01/20 10:55:48;;;;;;;123.80;117.40;;;;;;;;;;5068910;28;20431;-67
2024/01/20 10:58:16;;;;;;;122.38;115.28;;;;;;;;;;5051551;28;20532;-67
2024/01/20 11:00:44;;;;;;;119.90;113.60;;;;;;;;;;5067337;28;20427;-67
2024/01/20 11:03:12;;;;;;;129.70;122.32;;;;;;;;;;5066877;28;20567;-67
2024/01/20 11:05:39;;;;;;;126.75;120.15;;;;;;;;;;5066009;28;20874;-67
2024/01/20 11:08:08;;;;;;;124.25;117.75;;;;;;;;;;5055818;28;20514;-67
2024/01/20 11:10:47;;;;;;;126.15;119.55;;;;;;;;;;5068305;28;20476;-67
2024/01/20 11:13:15;;;;;;;120.63;114.23;;;;;;;;;;5061238;28;20946;-67
2024/01/20 11:15:49;;;;;;;128.52;121.80;;;;;;;;;;5051453;28;20424;-67
2024/01/20 11:18:20;;;;;;;124.55;118.15;;;;;;;;;;5070051;28;20523;-67
2024/01/20 11:20:58;;;;;;;123.28;116.88;;;;;;;;;;5052622;28;20433;-67
2024/01/20 11:23:28;;;;;;;116.22;109.90;;;;;;;;;;5066222;28;20971;-67
2024/01/20 11:25:56;;;;;;;108.55;102.75;;;;;;;;;;5046808;28;20784;-67
2024/01/20 11:28:30;;;;;;;119.13;112.15;;;;;;;;;;5063062;28;20493;-67
2024/01/20 11:30:57;;;;;;;114.97;108.78;;;;;;;;;;5066848;28;20425;-67
2024/01/20 11:33:25;;;;;;;111.43;105.63;;;;;;;;;;5061623;28;20577;-68
2024/01/20 11:35:52;;;;;;;67.70;64.00;;;;;;;;;;5064411;28;20512;-67
2024/01/20 11:38:20;;;;;;;92.55;87.63;;;;;;;;;;5056136;28;20428;-67
2024/01/20 11:40:59;;;;;;;93.20;88.30;;;;;;;;;;5051955;28;20424;-67
2024/01/20 11:43:26;;;;;;;89.63;84.83;;;;;;;;;;5060432;28;20437;-67
2024/01/20 11:45:54;;;;;;;95.63;90.43;;;;;;;;;;5064688;28;20441;-67
2024/01/20 11:48:24;;;;;;;102.05;96.65;;;;;;;;;;5065363;28;20501;-67
2024/01/20 11:50:52;;;;;;;108.18;102.57;;;;;;;;;;5057986;28;20810;-67
2024/01/20 11:53:22;;;;;;;112.28;106.38;;;;;;;;;;5055269;28;20442;-67
2024/01/20 11:56:07;;;;;;;108.43;102.72;;;;;;;;;;5055383;28;20727;-67
2024/01/20 11:58:34;;;;;;;106.38;100.88;;;;;;;;;;5056690;28;20921;-67
2024/01/20 12:01:02;;;;;;;114.32;108.32;;;;;;;;;;5049263;28;20525;-67
2024/01/20 12:03:30;;;;;;;115.45;109.50;;;;;;;;;;5068820;28;21133;-67
2024/01/20 12:06:07;;;;;;;124.28;117.80;;;;;;;;;;5057817;28;21269;-67
2024/01/20 12:08:44;;;;;;;117.80;111.65;;;;;;;;;;5062955;28;20948;-67
2024/01/20 12:11:27;;;;;;;106.63;100.95;;;;;;;;;;5063479;28;20525;-67
2024/01/20 12:13:55;;;;;;;110.25;104.47;;;;;;;;;;5069719;28;20933;-67
2024/01/20 12:16:22;;;;;;;84.00;79.20;;;;;;;;;;5066855;28;20435;-67
2024/01/20 12:18:49;;;;;;;107.93;101.78;;;;;;;;;;5056172;28;20524;-67
2024/01/20 12:21:17;;;;;;;97.00;91.55;;;;;;;;;;5047539;28;20497;-67
2024/01/20 12:23:44;;;;;;;79.93;73.05;;;;;;;;;;5056991;28;20484;-67
2024/01/20 12:26:12;;;;;;;93.93;88.85;;;;;;;;;;5060288;28;20446;-67
2024/01/20 12:28:41;;;;;;;99.57;93.75;;;;;;;;;;5063558;28;20435;-67
2024/01/20 12:31:09;;;;;;;100.72;95.35;;;;;;;;;;5059295;28;20446;-67
2024/01/20 12:33:39;;;;;;;103.10;97.00;;;;;;;;;;5060016;28;20459;-67
2024/01/20 12:36:07;;;;;;;101.95;96.25;;;;;;;;;;5064141;28;20430;-67
2024/01/20 12:38:34;;;;;;;110.00;104.25;;;;;;;;;;5062937;28;20436;-67
2024/01/20 12:41:01;;;;;;;124.60;118.15;;;;;;;;;;5059451;28;20442;-67
2024/01/20 12:43:31;;;;;;;112.20;105.70;;;;;;;;;;5057056;28;20522;-67
2024/01/20 12:45:58;;;;;;;109.10;103.03;;;;;;;;;;5055445;28;20434;-66
2024/01/20 12:48:25;;;;;;;107.28;100.88;;;;;;;;;;5059475;28;20492;-67
2024/01/20 12:50:53;;;;;;;110.20;104.13;;;;;;;;;;5058382;28;20433;-67
2024/01/20 12:53:20;;;;;;;102.60;97.20;;;;;;;;;;5059376;28;20431;-67
2024/01/20 12:55:50;;;;;;;115.63;109.55;;;;;;;;;;5054123;28;20863;-67
2024/01/20 12:58:21;;;;;;;112.70;106.78;;;;;;;;;;5060349;28;20928;-67
2024/01/20 13:00:48;;;;;;;115.20;108.83;;;;;;;;;;5061485;28;20520;-67
2024/01/20 13:03:16;;;;;;;113.63;107.57;;;;;;;;;;5064489;28;20946;-71
2024/01/20 13:05:46;;;;;;;115.05;109.05;;;;;;;;;;5054281;28;20435;-67
2024/01/20 13:08:13;;;;;;;116.22;110.07;;;;;;;;;;5061528;28;20506;-67
2024/01/20 13:10:49;;;;;;;116.97;110.57;;;;;;;;;;5054872;28;20454;-67
2024/01/20 13:13:17;;;;;;;115.18;109.18;;;;;;;;;;5054008;28;20480;-67
2024/01/20 13:15:44;;;;;;;116.60;110.50;;;;;;;;;;5068096;28;21157;-67
2024/01/20 13:18:11;;;;;;;113.28;107.38;;;;;;;;;;5067084;28;20835;-67
2024/01/20 13:20:40;;;;;;;115.65;109.65;;;;;;;;;;5044564;28;20439;-67
2024/01/20 13:23:08;;;;;;;119.05;112.88;;;;;;;;;;5059988;28;20435;-67
2024/01/20 13:25:35;;;;;;;116.27;109.50;;;;;;;;;;5059091;28;20444;-67
2024/01/20 13:28:02;;;;;;;117.15;110.75;;;;;;;;;;5056634;28;20441;-67
2024/01/20 13:30:29;;;;;;;113.93;105.93;;;;;;;;;;5052762;28;20458;-66
2024/01/20 13:32:57;;;;;;;108.20;102.53;;;;;;;;;;5066064;28;20431;-67
2024/01/20 13:35:24;;;;;;;117.05;110.55;;;;;;;;;;5060218;28;20442;-67
2024/01/20 13:37:52;;;;;;;119.07;112.83;;;;;;;;;;5060049;28;20437;-66
2024/01/20 13:40:19;;;;;;;122.72;116.20;;;;;;;;;;5057337;28;20461;-66
2024/01/20 13:42:46;;;;;;;127.13;120.55;;;;;;;;;;5056208;28;20489;-67
2024/01/20 13:45:13;;;;;;;119.60;113.30;;;;;;;;;;5060637;28;20427;-67
2024/01/20 13:47:40;;;;;;;122.65;115.85;;;;;;;;;;5061702;28;20431;-67
2024/01/20 13:50:08;;;;;;;120.10;112.93;;;;;;;;;;5057902;28;20443;-67
2024/01/20 13:52:35;;;;;;;117.25;111.22;;;;;;;;;;5060221;28;20438;-67
2024/01/20 13:55:04;;;;;;;117.63;111.20;;;;;;;;;;5077475;28;20427;-66
2024/01/20 13:57:32;;;;;;;117.15;111.05;;;;;;;;;;5061112;28;20481;-68
2024/01/20 13:59:59;;;;;;;115.45;109.50;;;;;;;;;;5070154;28;20427;-67
2024/01/20 14:02:27;;;;;;;121.90;115.57;;;;;;;;;;5066019;28;20802;-66
2024/01/20 14:04:56;;;;;;;123.25;115.68;;;;;;;;;;5061830;28;20431;-66
2024/01/20 14:07:23;;;;;;;119.70;113.30;;;;;;;;;;5067149;28;20522;-66
2024/01/20 14:09:51;;;;;;;119.43;113.22;;;;;;;;;;5063779;28;20508;-66